Salem, Michigan
Current Conditions -  °F | °C
As of 3:32 PM on Sunday 25 Jan 2015 (Local Time) from KYIP Reporting Station
Overcast Overcast  
Wind Chill: 17°   Ceiling: 6000
Heat Index: 28°   Visibility: 10mi
Dew Point: 16°   Wind: 15mph
Humidity: 61%   Direction: 60°ENE
Pressure: 29.89"   Gusts: NA
Location:  42.41°N, 83.58°W
Report Text: KYIP 252032Z 06013KT 10SM SCT023 OVC060 M02/M09 A2989 RMK AO2 T10221089
Loading
Personal Weather Stations






























Interactive Weather Map New forecast layout! Learn more

10-Day Weather Forecast

Advertisements
Track Severe Weather on mobile